sensor_id;sensor_type;location;lat;lon;timestamp;temperature;humidity
15574;DHT22;7888;46.748;8.102;2023-05-29T00:01:34;20.30;41.80
15574;DHT22;7888;46.748;8.102;2023-05-29T00:04:01;20.20;41.90
15574;DHT22;7888;46.748;8.102;2023-05-29T00:06:27;20.20;42.20
15574;DHT22;7888;46.748;8.102;2023-05-29T00:08:53;20.20;42.00
15574;DHT22;7888;46.748;8.102;2023-05-29T00:11:21;20.20;42.00
15574;DHT22;7888;46.748;8.102;2023-05-29T00:13:50;20.10;42.20
15574;DHT22;7888;46.748;8.102;2023-05-29T00:16:16;20.00;42.10
15574;DHT22;7888;46.748;8.102;2023-05-29T00:18:43;20.00;42.30
15574;DHT22;7888;46.748;8.102;2023-05-29T00:21:12;20.00;42.30
15574;DHT22;7888;46.748;8.102;2023-05-29T00:23:39;20.00;42.40
15574;DHT22;7888;46.748;8.102;2023-05-29T00:26:05;19.90;42.40
15574;DHT22;7888;46.748;8.102;2023-05-29T00:28:31;19.90;42.50
15574;DHT22;7888;46.748;8.102;2023-05-29T00:30:57;19.80;42.50
15574;DHT22;7888;46.748;8.102;2023-05-29T00:33:22;19.80;42.60
15574;DHT22;7888;46.748;8.102;2023-05-29T00:35:48;19.80;42.60
15574;DHT22;7888;46.748;8.102;2023-05-29T00:38:14;19.70;42.60
15574;DHT22;7888;46.748;8.102;2023-05-29T00:40:40;19.70;42.70
15574;DHT22;7888;46.748;8.102;2023-05-29T00:43:06;19.70;42.80
15574;DHT22;7888;46.748;8.102;2023-05-29T00:45:31;19.60;42.90
15574;DHT22;7888;46.748;8.102;2023-05-29T00:48:02;19.60;43.00
15574;DHT22;7888;46.748;8.102;2023-05-29T00:50:29;19.50;43.00
15574;DHT22;7888;46.748;8.102;2023-05-29T00:52:56;19.50;43.10
15574;DHT22;7888;46.748;8.102;2023-05-29T00:55:22;19.50;43.30
15574;DHT22;7888;46.748;8.102;2023-05-29T00:58:12;19.40;43.40
15574;DHT22;7888;46.748;8.102;2023-05-29T01:00:38;19.40;43.20
15574;DHT22;7888;46.748;8.102;2023-05-29T01:03:04;19.30;43.40
15574;DHT22;7888;46.748;8.102;2023-05-29T01:05:34;19.30;43.40
15574;DHT22;7888;46.748;8.102;2023-05-29T01:08:02;19.30;43.60
15574;DHT22;7888;46.748;8.102;2023-05-29T01:10:28;19.30;43.60
15574;DHT22;7888;46.748;8.102;2023-05-29T01:13:18;19.30;43.60
15574;DHT22;7888;46.748;8.102;2023-05-29T01:18:29;19.20;43.60
15574;DHT22;7888;46.748;8.102;2023-05-29T01:24:03;19.10;44.00
15574;DHT22;7888;46.748;8.102;2023-05-29T01:26:58;19.10;44.10
15574;DHT22;7888;46.748;8.102;2023-05-29T01:29:29;19.00;44.00
15574;DHT22;7888;46.748;8.102;2023-05-29T01:31:58;19.00;43.80
15574;DHT22;7888;46.748;8.102;2023-05-29T01:34:24;19.00;43.80
15574;DHT22;7888;46.748;8.102;2023-05-29T01:36:50;18.90;43.80
15574;DHT22;7888;46.748;8.102;2023-05-29T01:39:16;18.90;43.90
15574;DHT22;7888;46.748;8.102;2023-05-29T01:41:45;18.90;44.10
15574;DHT22;7888;46.748;8.102;2023-05-29T01:44:13;18.80;44.20
15574;DHT22;7888;46.748;8.102;2023-05-29T01:46:41;18.80;44.20
15574;DHT22;7888;46.748;8.102;2023-05-29T01:49:08;18.80;44.30
15574;DHT22;7888;46.748;8.102;2023-05-29T01:51:37;18.80;44.50
15574;DHT22;7888;46.748;8.102;2023-05-29T01:54:04;18.80;44.50
15574;DHT22;7888;46.748;8.102;2023-05-29T01:56:31;18.70;44.40
15574;DHT22;7888;46.748;8.102;2023-05-29T01:58:58;18.70;44.40
15574;DHT22;7888;46.748;8.102;2023-05-29T02:01:27;18.70;44.50
15574;DHT22;7888;46.748;8.102;2023-05-29T02:03:52;18.60;44.40
15574;DHT22;7888;46.748;8.102;2023-05-29T02:06:19;18.60;44.60
15574;DHT22;7888;46.748;8.102;2023-05-29T02:08:45;18.60;44.70
15574;DHT22;7888;46.748;8.102;2023-05-29T02:11:12;18.60;44.70
15574;DHT22;7888;46.748;8.102;2023-05-29T02:13:38;18.50;44.70
15574;DHT22;7888;46.748;8.102;2023-05-29T02:16:04;18.50;44.70
15574;DHT22;7888;46.748;8.102;2023-05-29T02:18:30;18.50;44.80
15574;DHT22;7888;46.748;8.102;2023-05-29T02:20:56;18.50;44.90
15574;DHT22;7888;46.748;8.102;2023-05-29T02:23:22;18.50;44.90
15574;DHT22;7888;46.748;8.102;2023-05-29T02:25:48;18.40;44.90
15574;DHT22;7888;46.748;8.102;2023-05-29T02:28:14;18.40;44.90
15574;DHT22;7888;46.748;8.102;2023-05-29T02:30:40;18.40;45.10
15574;DHT22;7888;46.748;8.102;2023-05-29T02:33:05;18.40;45.10
15574;DHT22;7888;46.748;8.102;2023-05-29T02:35:31;18.40;45.10
15574;DHT22;7888;46.748;8.102;2023-05-29T02:37:57;18.30;45.10
15574;DHT22;7888;46.748;8.102;2023-05-29T02:40:23;18.30;45.10
15574;DHT22;7888;46.748;8.102;2023-05-29T02:42:49;18.30;45.20
15574;DHT22;7888;46.748;8.102;2023-05-29T02:45:16;18.30;45.20
15574;DHT22;7888;46.748;8.102;2023-05-29T02:47:42;18.20;45.30
15574;DHT22;7888;46.748;8.102;2023-05-29T02:50:08;18.20;45.30
15574;DHT22;7888;46.748;8.102;2023-05-29T02:52:35;18.20;45.40
15574;DHT22;7888;46.748;8.102;2023-05-29T02:55:03;18.10;45.50
15574;DHT22;7888;46.748;8.102;2023-05-29T02:57:31;18.10;45.60
15574;DHT22;7888;46.748;8.102;2023-05-29T02:59:57;18.10;45.60
15574;DHT22;7888;46.748;8.102;2023-05-29T03:02:23;18.10;45.60
15574;DHT22;7888;46.748;8.102;2023-05-29T03:04:49;18.00;45.60
15574;DHT22;7888;46.748;8.102;2023-05-29T03:07:16;18.00;45.60
15574;DHT22;7888;46.748;8.102;2023-05-29T03:09:42;18.00;45.70
15574;DHT22;7888;46.748;8.102;2023-05-29T03:12:08;17.90;45.80
15574;DHT22;7888;46.748;8.102;2023-05-29T03:14:34;17.90;45.80
15574;DHT22;7888;46.748;8.102;2023-05-29T03:17:05;17.90;46.00
15574;DHT22;7888;46.748;8.102;2023-05-29T03:19:33;17.90;46.30
15574;DHT22;7888;46.748;8.102;2023-05-29T03:21:59;17.90;46.00
15574;DHT22;7888;46.748;8.102;2023-05-29T03:24:25;17.80;46.00
15574;DHT22;7888;46.748;8.102;2023-05-29T03:26:50;17.80;46.10
15574;DHT22;7888;46.748;8.102;2023-05-29T03:29:17;17.80;46.00
15574;DHT22;7888;46.748;8.102;2023-05-29T03:31:43;17.80;46.10
15574;DHT22;7888;46.748;8.102;2023-05-29T03:34:09;17.80;46.10
15574;DHT22;7888;46.748;8.102;2023-05-29T03:36:35;17.70;46.10
15574;DHT22;7888;46.748;8.102;2023-05-29T03:39:04;17.70;46.10
15574;DHT22;7888;46.748;8.102;2023-05-29T03:41:30;17.70;46.30
15574;DHT22;7888;46.748;8.102;2023-05-29T03:43:56;17.70;46.20
15574;DHT22;7888;46.748;8.102;2023-05-29T03:46:22;17.70;46.40
15574;DHT22;7888;46.748;8.102;2023-05-29T03:48:47;17.60;46.30
15574;DHT22;7888;46.748;8.102;2023-05-29T03:51:13;17.60;46.50
15574;DHT22;7888;46.748;8.102;2023-05-29T03:53:39;17.60;46.50
15574;DHT22;7888;46.748;8.102;2023-05-29T03:56:05;17.60;46.70
15574;DHT22;7888;46.748;8.102;2023-05-29T03:58:31;17.60;46.70
15574;DHT22;7888;46.748;8.102;2023-05-29T04:00:57;17.60;46.70
15574;DHT22;7888;46.748;8.102;2023-05-29T04:03:23;17.50;46.70
15574;DHT22;7888;46.748;8.102;2023-05-29T04:05:48;17.50;46.70
15574;DHT22;7888;46.748;8.102;2023-05-29T04:08:15;17.50;46.70
15574;DHT22;7888;46.748;8.102;2023-05-29T04:10:41;17.50;46.90
15574;DHT22;7888;46.748;8.102;2023-05-29T04:13:07;17.50;46.90
15574;DHT22;7888;46.748;8.102;2023-05-29T04:15:32;17.50;47.00
15574;DHT22;7888;46.748;8.102;2023-05-29T04:17:59;17.50;47.10
15574;DHT22;7888;46.748;8.102;2023-05-29T04:20:25;17.50;47.20
15574;DHT22;7888;46.748;8.102;2023-05-29T04:22:51;17.50;47.20
15574;DHT22;7888;46.748;8.102;2023-05-29T04:25:17;17.50;47.30
15574;DHT22;7888;46.748;8.102;2023-05-29T04:27:44;17.50;47.30
15574;DHT22;7888;46.748;8.102;2023-05-29T04:30:15;17.50;47.40
15574;DHT22;7888;46.748;8.102;2023-05-29T04:32:41;17.40;47.50
15574;DHT22;7888;46.748;8.102;2023-05-29T04:35:08;17.50;47.60
15574;DHT22;7888;46.748;8.102;2023-05-29T04:37:35;17.40;47.50
15574;DHT22;7888;46.748;8.102;2023-05-29T04:40:06;17.50;47.80
15574;DHT22;7888;46.748;8.102;2023-05-29T04:42:35;17.50;47.80
15574;DHT22;7888;46.748;8.102;2023-05-29T04:45:02;17.50;47.80
15574;DHT22;7888;46.748;8.102;2023-05-29T04:47:32;17.40;47.80
15574;DHT22;7888;46.748;8.102;2023-05-29T04:50:01;17.50;47.90
15574;DHT22;7888;46.748;8.102;2023-05-29T04:52:28;17.50;48.20
15574;DHT22;7888;46.748;8.102;2023-05-29T04:54:54;17.50;48.00
15574;DHT22;7888;46.748;8.102;2023-05-29T04:57:22;17.50;48.10
15574;DHT22;7888;46.748;8.102;2023-05-29T04:59:48;17.50;48.10
15574;DHT22;7888;46.748;8.102;2023-05-29T05:02:13;17.50;47.90
15574;DHT22;7888;46.748;8.102;2023-05-29T05:04:39;17.60;48.00
15574;DHT22;7888;46.748;8.102;2023-05-29T05:07:05;17.60;48.10
15574;DHT22;7888;46.748;8.102;2023-05-29T05:09:31;17.60;48.00
15574;DHT22;7888;46.748;8.102;2023-05-29T05:11:57;17.60;48.00
15574;DHT22;7888;46.748;8.102;2023-05-29T05:14:23;17.60;48.10
15574;DHT22;7888;46.748;8.102;2023-05-29T05:16:49;17.60;48.20
15574;DHT22;7888;46.748;8.102;2023-05-29T05:19:16;17.70;48.30
15574;DHT22;7888;46.748;8.102;2023-05-29T05:21:42;17.70;48.30
15574;DHT22;7888;46.748;8.102;2023-05-29T05:24:08;17.70;48.30
15574;DHT22;7888;46.748;8.102;2023-05-29T05:26:33;17.70;48.30
15574;DHT22;7888;46.748;8.102;2023-05-29T05:28:59;17.80;48.20
15574;DHT22;7888;46.748;8.102;2023-05-29T05:31:26;17.80;48.00
15574;DHT22;7888;46.748;8.102;2023-05-29T05:33:52;17.90;48.30
15574;DHT22;7888;46.748;8.102;2023-05-29T05:36:18;17.90;48.30
15574;DHT22;7888;46.748;8.102;2023-05-29T05:38:44;17.90;48.30
15574;DHT22;7888;46.748;8.102;2023-05-29T05:41:10;18.00;48.50
15574;DHT22;7888;46.748;8.102;2023-05-29T05:43:36;18.00;48.60
15574;DHT22;7888;46.748;8.102;2023-05-29T05:46:02;18.10;48.60
15574;DHT22;7888;46.748;8.102;2023-05-29T05:48:28;18.10;48.70
15574;DHT22;7888;46.748;8.102;2023-05-29T05:50:53;18.20;48.70
15574;DHT22;7888;46.748;8.102;2023-05-29T05:53:19;18.20;48.80
15574;DHT22;7888;46.748;8.102;2023-05-29T05:55:46;18.30;48.90
15574;DHT22;7888;46.748;8.102;2023-05-29T05:58:12;18.40;49.00
15574;DHT22;7888;46.748;8.102;2023-05-29T06:00:39;18.40;48.90
15574;DHT22;7888;46.748;8.102;2023-05-29T06:03:05;18.50;48.90
15574;DHT22;7888;46.748;8.102;2023-05-29T06:05:31;18.60;48.60
15574;DHT22;7888;46.748;8.102;2023-05-29T06:07:59;18.60;48.30
15574;DHT22;7888;46.748;8.102;2023-05-29T06:10:25;18.70;48.20
15574;DHT22;7888;46.748;8.102;2023-05-29T06:12:51;18.80;48.20
15574;DHT22;7888;46.748;8.102;2023-05-29T06:15:18;18.90;48.30
15574;DHT22;7888;46.748;8.102;2023-05-29T06:17:43;19.00;48.40
15574;DHT22;7888;46.748;8.102;2023-05-29T06:20:10;19.10;48.40
15574;DHT22;7888;46.748;8.102;2023-05-29T06:22:39;19.20;48.30
15574;DHT22;7888;46.748;8.102;2023-05-29T06:25:06;19.30;48.50
15574;DHT22;7888;46.748;8.102;2023-05-29T06:27:32;19.40;48.40
15574;DHT22;7888;46.748;8.102;2023-05-29T06:29:58;19.50;48.50
15574;DHT22;7888;46.748;8.102;2023-05-29T06:32:23;19.70;48.40
15574;DHT22;7888;46.748;8.102;2023-05-29T06:34:49;19.80;48.30
15574;DHT22;7888;46.748;8.102;2023-05-29T06:37:15;19.90;48.00
15574;DHT22;7888;46.748;8.102;2023-05-29T06:39:44;20.10;47.80
15574;DHT22;7888;46.748;8.102;2023-05-29T06:42:10;20.20;47.60
15574;DHT22;7888;46.748;8.102;2023-05-29T06:44:36;20.30;47.30
15574;DHT22;7888;46.748;8.102;2023-05-29T06:47:02;20.30;47.00
15574;DHT22;7888;46.748;8.102;2023-05-29T06:49:28;20.50;46.60
15574;DHT22;7888;46.748;8.102;2023-05-29T06:51:53;20.50;46.30
15574;DHT22;7888;46.748;8.102;2023-05-29T06:54:19;20.60;46.30
15574;DHT22;7888;46.748;8.102;2023-05-29T06:56:45;20.60;46.00
15574;DHT22;7888;46.748;8.102;2023-05-29T06:59:11;20.70;45.90
15574;DHT22;7888;46.748;8.102;2023-05-29T07:01:37;20.70;45.90
15574;DHT22;7888;46.748;8.102;2023-05-29T07:04:03;20.80;46.00
15574;DHT22;7888;46.748;8.102;2023-05-29T07:06:29;20.90;46.10
15574;DHT22;7888;46.748;8.102;2023-05-29T07:08:55;21.10;46.20
15574;DHT22;7888;46.748;8.102;2023-05-29T07:11:21;21.20;46.00
15574;DHT22;7888;46.748;8.102;2023-05-29T07:13:47;21.30;45.80
15574;DHT22;7888;46.748;8.102;2023-05-29T07:16:13;21.50;45.80
15574;DHT22;7888;46.748;8.102;2023-05-29T07:18:39;21.60;45.70
15574;DHT22;7888;46.748;8.102;2023-05-29T07:21:04;21.70;45.60
15574;DHT22;7888;46.748;8.102;2023-05-29T07:23:31;21.90;45.50
15574;DHT22;7888;46.748;8.102;2023-05-29T07:25:57;22.00;45.40
15574;DHT22;7888;46.748;8.102;2023-05-29T07:28:23;22.20;45.20
15574;DHT22;7888;46.748;8.102;2023-05-29T07:30:49;22.30;45.00
15574;DHT22;7888;46.748;8.102;2023-05-29T07:33:14;22.50;44.70
15574;DHT22;7888;46.748;8.102;2023-05-29T07:35:40;22.60;44.60
15574;DHT22;7888;46.748;8.102;2023-05-29T07:38:06;22.70;44.60
15574;DHT22;7888;46.748;8.102;2023-05-29T07:40:32;22.90;44.30
15574;DHT22;7888;46.748;8.102;2023-05-29T07:42:57;23.00;43.90
15574;DHT22;7888;46.748;8.102;2023-05-29T07:45:23;23.20;43.60
15574;DHT22;7888;46.748;8.102;2023-05-29T07:47:49;23.30;43.50
15574;DHT22;7888;46.748;8.102;2023-05-29T07:50:15;23.40;43.30
15574;DHT22;7888;46.748;8.102;2023-05-29T07:52:42;23.60;43.50
15574;DHT22;7888;46.748;8.102;2023-05-29T07:55:09;23.70;43.50
15574;DHT22;7888;46.748;8.102;2023-05-29T07:57:35;23.90;43.70
15574;DHT22;7888;46.748;8.102;2023-05-29T08:00:01;24.00;43.20
15574;DHT22;7888;46.748;8.102;2023-05-29T08:02:34;24.20;43.00
15574;DHT22;7888;46.748;8.102;2023-05-29T08:05:03;24.40;42.90
15574;DHT22;7888;46.748;8.102;2023-05-29T08:07:29;24.50;42.90
15574;DHT22;7888;46.748;8.102;2023-05-29T08:09:55;24.70;42.60
15574;DHT22;7888;46.748;8.102;2023-05-29T08:12:21;24.80;42.30
15574;DHT22;7888;46.748;8.102;2023-05-29T08:14:47;25.00;42.00
15574;DHT22;7888;46.748;8.102;2023-05-29T08:17:13;25.10;41.60
15574;DHT22;7888;46.748;8.102;2023-05-29T08:19:39;25.20;41.50
15574;DHT22;7888;46.748;8.102;2023-05-29T08:22:04;25.30;41.30
15574;DHT22;7888;46.748;8.102;2023-05-29T08:24:31;25.40;41.50
15574;DHT22;7888;46.748;8.102;2023-05-29T08:26:57;25.50;41.30
15574;DHT22;7888;46.748;8.102;2023-05-29T08:29:23;25.50;40.80
15574;DHT22;7888;46.748;8.102;2023-05-29T08:31:49;25.60;40.90
15574;DHT22;7888;46.748;8.102;2023-05-29T08:34:15;25.70;40.50
15574;DHT22;7888;46.748;8.102;2023-05-29T08:36:41;25.70;40.50
15574;DHT22;7888;46.748;8.102;2023-05-29T08:39:07;25.80;40.20
15574;DHT22;7888;46.748;8.102;2023-05-29T08:42:04;25.90;40.00
15574;DHT22;7888;46.748;8.102;2023-05-29T08:44:33;26.00;40.30
15574;DHT22;7888;46.748;8.102;2023-05-29T08:47:02;26.10;40.30
15574;DHT22;7888;46.748;8.102;2023-05-29T08:49:41;26.20;40.10
15574;DHT22;7888;46.748;8.102;2023-05-29T08:52:18;26.30;39.70
15574;DHT22;7888;46.748;8.102;2023-05-29T08:54:46;26.30;39.50
15574;DHT22;7888;46.748;8.102;2023-05-29T08:57:12;26.40;39.60
15574;DHT22;7888;46.748;8.102;2023-05-29T08:59:42;26.50;39.40
15574;DHT22;7888;46.748;8.102;2023-05-29T09:02:10;26.60;38.70
15574;DHT22;7888;46.748;8.102;2023-05-29T09:04:38;26.60;39.30
15574;DHT22;7888;46.748;8.102;2023-05-29T09:07:04;26.70;39.00
15574;DHT22;7888;46.748;8.102;2023-05-29T09:09:34;26.80;39.00
15574;DHT22;7888;46.748;8.102;2023-05-29T09:12:00;26.80;38.80
15574;DHT22;7888;46.748;8.102;2023-05-29T09:14:40;26.90;38.90
15574;DHT22;7888;46.748;8.102;2023-05-29T09:17:09;27.00;38.20
15574;DHT22;7888;46.748;8.102;2023-05-29T09:19:36;27.10;38.30
15574;DHT22;7888;46.748;8.102;2023-05-29T09:22:09;27.20;38.10
15574;DHT22;7888;46.748;8.102;2023-05-29T09:24:37;27.30;37.80
15574;DHT22;7888;46.748;8.102;2023-05-29T09:27:06;27.30;38.00
15574;DHT22;7888;46.748;8.102;2023-05-29T09:29:38;27.40;37.90
15574;DHT22;7888;46.748;8.102;2023-05-29T09:32:15;27.40;37.90
15574;DHT22;7888;46.748;8.102;2023-05-29T09:34:43;27.50;37.80
15574;DHT22;7888;46.748;8.102;2023-05-29T09:37:11;27.60;38.00
15574;DHT22;7888;46.748;8.102;2023-05-29T09:39:50;27.70;37.90
15574;DHT22;7888;46.748;8.102;2023-05-29T09:42:19;27.80;37.30
15574;DHT22;7888;46.748;8.102;2023-05-29T09:44:48;27.90;37.40
15574;DHT22;7888;46.748;8.102;2023-05-29T09:47:17;28.00;37.20
15574;DHT22;7888;46.748;8.102;2023-05-29T09:49:45;28.00;37.50
15574;DHT22;7888;46.748;8.102;2023-05-29T09:52:14;28.10;37.30
15574;DHT22;7888;46.748;8.102;2023-05-29T09:54:46;28.10;37.30
15574;DHT22;7888;46.748;8.102;2023-05-29T09:57:17;28.10;37.30
15574;DHT22;7888;46.748;8.102;2023-05-29T09:59:46;28.20;36.30
15574;DHT22;7888;46.748;8.102;2023-05-29T10:02:17;28.30;36.20
15574;DHT22;7888;46.748;8.102;2023-05-29T10:04:44;28.40;36.90
15574;DHT22;7888;46.748;8.102;2023-05-29T10:07:15;28.60;36.40
15574;DHT22;7888;46.748;8.102;2023-05-29T10:10:07;28.70;36.10
15574;DHT22;7888;46.748;8.102;2023-05-29T10:12:38;28.90;36.00
15574;DHT22;7888;46.748;8.102;2023-05-29T10:15:17;29.10;36.10
15574;DHT22;7888;46.748;8.102;2023-05-29T10:20:26;29.30;34.80
15574;DHT22;7888;46.748;8.102;2023-05-29T10:22:55;29.40;35.00
15574;DHT22;7888;46.748;8.102;2023-05-29T10:25:27;29.40;34.30
15574;DHT22;7888;46.748;8.102;2023-05-29T10:27:57;29.40;34.20
15574;DHT22;7888;46.748;8.102;2023-05-29T10:30:35;29.40;34.20
15574;DHT22;7888;46.748;8.102;2023-05-29T10:35:55;29.60;34.60
15574;DHT22;7888;46.748;8.102;2023-05-29T10:38:32;29.60;34.30
15574;DHT22;7888;46.748;8.102;2023-05-29T10:43:57;29.80;33.40
15574;DHT22;7888;46.748;8.102;2023-05-29T10:49:21;29.90;33.40
15574;DHT22;7888;46.748;8.102;2023-05-29T10:51:51;29.80;33.20
15574;DHT22;7888;46.748;8.102;2023-05-29T10:54:24;29.80;33.40
15574;DHT22;7888;46.748;8.102;2023-05-29T10:57:00;29.90;33.30
15574;DHT22;7888;46.748;8.102;2023-05-29T10:59:27;29.90;33.80
15574;DHT22;7888;46.748;8.102;2023-05-29T11:01:54;29.90;33.40
15574;DHT22;7888;46.748;8.102;2023-05-29T11:06:52;30.00;33.40
15574;DHT22;7888;46.748;8.102;2023-05-29T11:09:38;30.10;33.60
15574;DHT22;7888;46.748;8.102;2023-05-29T11:12:24;30.10;33.20
15574;DHT22;7888;46.748;8.102;2023-05-29T11:15:05;30.30;33.10
15574;DHT22;7888;46.748;8.102;2023-05-29T11:20:06;30.50;33.20
15574;DHT22;7888;46.748;8.102;2023-05-29T11:25:24;30.60;31.90
15574;DHT22;7888;46.748;8.102;2023-05-29T11:27:50;30.70;32.60
15574;DHT22;7888;46.748;8.102;2023-05-29T11:30:18;30.70;32.50
15574;DHT22;7888;46.748;8.102;2023-05-29T11:32:46;30.70;32.80
15574;DHT22;7888;46.748;8.102;2023-05-29T11:35:12;30.70;32.60
15574;DHT22;7888;46.748;8.102;2023-05-29T11:37:40;30.70;32.30
15574;DHT22;7888;46.748;8.102;2023-05-29T11:40:11;30.70;32.20
15574;DHT22;7888;46.748;8.102;2023-05-29T11:42:46;30.70;32.10
15574;DHT22;7888;46.748;8.102;2023-05-29T11:45:21;30.70;31.60
15574;DHT22;7888;46.748;8.102;2023-05-29T11:47:51;30.70;31.70
15574;DHT22;7888;46.748;8.102;2023-05-29T11:50:22;30.70;32.00
15574;DHT22;7888;46.748;8.102;2023-05-29T11:52:49;30.80;31.60
15574;DHT22;7888;46.748;8.102;2023-05-29T11:55:18;30.80;31.90
15574;DHT22;7888;46.748;8.102;2023-05-29T11:57:46;30.90;31.80
15574;DHT22;7888;46.748;8.102;2023-05-29T12:00:17;30.90;31.40
15574;DHT22;7888;46.748;8.102;2023-05-29T12:02:45;30.90;31.20
15574;DHT22;7888;46.748;8.102;2023-05-29T12:05:15;30.90;31.60
15574;DHT22;7888;46.748;8.102;2023-05-29T12:07:54;30.90;31.30
15574;DHT22;7888;46.748;8.102;2023-05-29T12:10:23;30.90;31.20
15574;DHT22;7888;46.748;8.102;2023-05-29T12:12:52;30.90;31.70
15574;DHT22;7888;46.748;8.102;2023-05-29T12:15:19;30.90;31.70
15574;DHT22;7888;46.748;8.102;2023-05-29T12:17:47;31.00;32.30
15574;DHT22;7888;46.748;8.102;2023-05-29T12:20:17;31.00;31.80
15574;DHT22;7888;46.748;8.102;2023-05-29T12:22:45;31.20;31.70
15574;DHT22;7888;46.748;8.102;2023-05-29T12:25:16;31.20;31.50
15574;DHT22;7888;46.748;8.102;2023-05-29T12:27:44;31.30;31.30
15574;DHT22;7888;46.748;8.102;2023-05-29T12:32:44;31.50;32.20
15574;DHT22;7888;46.748;8.102;2023-05-29T12:35:23;31.50;31.50
15574;DHT22;7888;46.748;8.102;2023-05-29T12:37:55;31.60;31.60
15574;DHT22;7888;46.748;8.102;2023-05-29T12:40:23;31.60;30.40
15574;DHT22;7888;46.748;8.102;2023-05-29T12:42:55;31.60;30.80
15574;DHT22;7888;46.748;8.102;2023-05-29T12:45:32;31.60;30.40
15574;DHT22;7888;46.748;8.102;2023-05-29T12:48:07;31.60;30.60
15574;DHT22;7888;46.748;8.102;2023-05-29T12:50:39;31.60;30.80
15574;DHT22;7888;46.748;8.102;2023-05-29T12:53:07;31.60;30.40
15574;DHT22;7888;46.748;8.102;2023-05-29T12:55:39;31.60;30.50
15574;DHT22;7888;46.748;8.102;2023-05-29T12:58:08;31.60;30.40
15574;DHT22;7888;46.748;8.102;2023-05-29T13:00:37;31.50;30.40
15574;DHT22;7888;46.748;8.102;2023-05-29T13:03:04;31.50;30.10
15574;DHT22;7888;46.748;8.102;2023-05-29T13:05:31;31.50;30.00
15574;DHT22;7888;46.748;8.102;2023-05-29T13:07:58;31.30;30.20
15574;DHT22;7888;46.748;8.102;2023-05-29T13:10:25;31.30;30.50
15574;DHT22;7888;46.748;8.102;2023-05-29T13:12:53;31.30;30.40
15574;DHT22;7888;46.748;8.102;2023-05-29T13:15:21;31.30;30.20
15574;DHT22;7888;46.748;8.102;2023-05-29T13:17:48;31.30;30.20
15574;DHT22;7888;46.748;8.102;2023-05-29T13:20:15;31.30;30.30
15574;DHT22;7888;46.748;8.102;2023-05-29T13:22:43;31.20;30.10
15574;DHT22;7888;46.748;8.102;2023-05-29T13:25:11;31.10;30.40
15574;DHT22;7888;46.748;8.102;2023-05-29T13:27:45;31.10;30.40
15574;DHT22;7888;46.748;8.102;2023-05-29T13:30:13;31.10;30.20
15574;DHT22;7888;46.748;8.102;2023-05-29T13:32:40;31.10;30.60
15574;DHT22;7888;46.748;8.102;2023-05-29T13:35:06;31.10;30.30
15574;DHT22;7888;46.748;8.102;2023-05-29T13:37:32;31.10;30.40
15574;DHT22;7888;46.748;8.102;2023-05-29T13:39:58;31.20;30.40
15574;DHT22;7888;46.748;8.102;2023-05-29T13:42:24;31.20;30.60
15574;DHT22;7888;46.748;8.102;2023-05-29T13:44:50;31.30;30.50
15574;DHT22;7888;46.748;8.102;2023-05-29T13:47:16;31.30;30.10
15574;DHT22;7888;46.748;8.102;2023-05-29T13:49:43;31.30;30.00
15574;DHT22;7888;46.748;8.102;2023-05-29T13:52:08;31.30;30.00
15574;DHT22;7888;46.748;8.102;2023-05-29T13:54:34;31.30;30.20
15574;DHT22;7888;46.748;8.102;2023-05-29T13:57:04;31.30;30.20
15574;DHT22;7888;46.748;8.102;2023-05-29T13:59:31;31.30;30.00
15574;DHT22;7888;46.748;8.102;2023-05-29T14:01:58;31.40;30.00
15574;DHT22;7888;46.748;8.102;2023-05-29T14:04:24;31.30;30.00
15574;DHT22;7888;46.748;8.102;2023-05-29T14:06:51;31.30;29.90
15574;DHT22;7888;46.748;8.102;2023-05-29T14:09:17;31.30;30.20
15574;DHT22;7888;46.748;8.102;2023-05-29T14:11:48;31.30;30.20
15574;DHT22;7888;46.748;8.102;2023-05-29T14:14:13;31.30;30.00
15574;DHT22;7888;46.748;8.102;2023-05-29T14:16:41;31.40;29.90
15574;DHT22;7888;46.748;8.102;2023-05-29T14:19:07;31.50;29.80
15574;DHT22;7888;46.748;8.102;2023-05-29T14:21:32;31.50;30.00
15574;DHT22;7888;46.748;8.102;2023-05-29T14:23:58;31.40;29.90
15574;DHT22;7888;46.748;8.102;2023-05-29T14:26:24;31.40;30.00
15574;DHT22;7888;46.748;8.102;2023-05-29T14:28:50;31.40;29.70
15574;DHT22;7888;46.748;8.102;2023-05-29T14:31:15;31.50;29.90
15574;DHT22;7888;46.748;8.102;2023-05-29T14:33:41;31.50;29.80
15574;DHT22;7888;46.748;8.102;2023-05-29T14:36:07;31.50;29.70
15574;DHT22;7888;46.748;8.102;2023-05-29T14:38:33;31.50;29.70
15574;DHT22;7888;46.748;8.102;2023-05-29T14:40:59;31.50;29.80
15574;DHT22;7888;46.748;8.102;2023-05-29T14:43:25;31.50;29.60
15574;DHT22;7888;46.748;8.102;2023-05-29T14:45:51;31.50;29.90
15574;DHT22;7888;46.748;8.102;2023-05-29T14:48:16;31.50;29.50
15574;DHT22;7888;46.748;8.102;2023-05-29T14:50:42;31.50;29.30
15574;DHT22;7888;46.748;8.102;2023-05-29T14:53:08;31.50;29.40
15574;DHT22;7888;46.748;8.102;2023-05-29T14:55:34;31.50;29.50
15574;DHT22;7888;46.748;8.102;2023-05-29T14:58:06;31.50;29.30
15574;DHT22;7888;46.748;8.102;2023-05-29T15:00:32;31.50;29.10
15574;DHT22;7888;46.748;8.102;2023-05-29T15:02:58;31.60;29.00
15574;DHT22;7888;46.748;8.102;2023-05-29T15:05:27;31.50;29.00
15574;DHT22;7888;46.748;8.102;2023-05-29T15:07:54;31.40;28.80
15574;DHT22;7888;46.748;8.102;2023-05-29T15:10:26;31.40;28.90
15574;DHT22;7888;46.748;8.102;2023-05-29T15:12:53;31.30;28.90
15574;DHT22;7888;46.748;8.102;2023-05-29T15:15:26;31.30;29.00
15574;DHT22;7888;46.748;8.102;2023-05-29T15:17:53;31.30;29.20
15574;DHT22;7888;46.748;8.102;2023-05-29T15:20:24;31.30;28.70
15574;DHT22;7888;46.748;8.102;2023-05-29T15:22:52;31.20;28.80
15574;DHT22;7888;46.748;8.102;2023-05-29T15:25:20;31.20;29.00
15574;DHT22;7888;46.748;8.102;2023-05-29T15:27:46;31.20;28.60
15574;DHT22;7888;46.748;8.102;2023-05-29T15:30:17;31.10;28.70
15574;DHT22;7888;46.748;8.102;2023-05-29T15:32:44;31.00;28.70
15574;DHT22;7888;46.748;8.102;2023-05-29T15:35:12;30.90;28.70
15574;DHT22;7888;46.748;8.102;2023-05-29T15:37:41;30.80;28.50
15574;DHT22;7888;46.748;8.102;2023-05-29T15:40:08;30.70;28.80
15574;DHT22;7888;46.748;8.102;2023-05-29T15:42:35;30.60;28.60
15574;DHT22;7888;46.748;8.102;2023-05-29T15:45:02;30.50;28.50
15574;DHT22;7888;46.748;8.102;2023-05-29T15:47:29;30.40;28.60
15574;DHT22;7888;46.748;8.102;2023-05-29T15:49:56;30.40;28.60
15574;DHT22;7888;46.748;8.102;2023-05-29T15:52:22;30.20;28.50
15574;DHT22;7888;46.748;8.102;2023-05-29T15:54:49;30.10;28.50
15574;DHT22;7888;46.748;8.102;2023-05-29T15:57:15;30.00;28.60
15574;DHT22;7888;46.748;8.102;2023-05-29T15:59:41;29.80;28.70
15574;DHT22;7888;46.748;8.102;2023-05-29T16:02:06;29.70;28.60
15574;DHT22;7888;46.748;8.102;2023-05-29T16:04:34;29.50;28.90
15574;DHT22;7888;46.748;8.102;2023-05-29T16:07:00;29.40;28.90
15574;DHT22;7888;46.748;8.102;2023-05-29T16:09:27;29.30;29.00
15574;DHT22;7888;46.748;8.102;2023-05-29T16:11:53;29.30;29.00
15574;DHT22;7888;46.748;8.102;2023-05-29T16:14:19;29.20;29.00
15574;DHT22;7888;46.748;8.102;2023-05-29T16:16:45;29.20;28.90